sensor_id;sensor_type;location;lat;lon;timestamp;temperature;humidity
24800;DHT22;12897;50.812;4.430;2023-06-24T00:00:34;19.70;99.90
24800;DHT22;12897;50.812;4.430;2023-06-24T00:03:09;19.60;99.90
24800;DHT22;12897;50.812;4.430;2023-06-24T00:05:48;19.50;99.90
24800;DHT22;12897;50.812;4.430;2023-06-24T00:08:23;19.40;99.90
24800;DHT22;12897;50.812;4.430;2023-06-24T00:10:58;19.40;99.90
24800;DHT22;12897;50.812;4.430;2023-06-24T00:13:49;19.30;99.90
24800;DHT22;12897;50.812;4.430;2023-06-24T00:16:12;19.30;99.90
24800;DHT22;12897;50.812;4.430;2023-06-24T00:18:48;19.40;99.90
24800;DHT22;12897;50.812;4.430;2023-06-24T00:21:25;19.40;99.90
24800;DHT22;12897;50.812;4.430;2023-06-24T00:24:00;19.40;99.90
24800;DHT22;12897;50.812;4.430;2023-06-24T00:26:48;19.50;99.90
24800;DHT22;12897;50.812;4.430;2023-06-24T00:29:15;19.40;99.90
24800;DHT22;12897;50.812;4.430;2023-06-24T00:31:48;19.20;99.90
24800;DHT22;12897;50.812;4.430;2023-06-24T00:34:23;19.20;99.90
24800;DHT22;12897;50.812;4.430;2023-06-24T00:37:00;19.20;99.90
24800;DHT22;12897;50.812;4.430;2023-06-24T00:39:37;19.10;99.90
24800;DHT22;12897;50.812;4.430;2023-06-24T00:42:13;19.10;99.90
24800;DHT22;12897;50.812;4.430;2023-06-24T00:44:50;19.00;99.90
24800;DHT22;12897;50.812;4.430;2023-06-24T00:47:26;19.00;99.90
24800;DHT22;12897;50.812;4.430;2023-06-24T00:50:03;19.00;99.90
24800;DHT22;12897;50.812;4.430;2023-06-24T00:52:37;19.00;99.90
24800;DHT22;12897;50.812;4.430;2023-06-24T00:55:10;18.90;99.90
24800;DHT22;12897;50.812;4.430;2023-06-24T00:57:44;18.90;99.90
24800;DHT22;12897;50.812;4.430;2023-06-24T01:00:12;18.80;99.90
24800;DHT22;12897;50.812;4.430;2023-06-24T01:02:42;18.80;99.90
24800;DHT22;12897;50.812;4.430;2023-06-24T01:05:10;18.70;99.90
24800;DHT22;12897;50.812;4.430;2023-06-24T01:07:39;18.60;99.90
24800;DHT22;12897;50.812;4.430;2023-06-24T01:10:09;18.50;99.90
24800;DHT22;12897;50.812;4.430;2023-06-24T01:12:39;18.40;99.90
24800;DHT22;12897;50.812;4.430;2023-06-24T01:15:10;18.60;99.90
24800;DHT22;12897;50.812;4.430;2023-06-24T01:17:43;18.60;99.90
24800;DHT22;12897;50.812;4.430;2023-06-24T01:20:43;18.50;99.90
24800;DHT22;12897;50.812;4.430;2023-06-24T01:31:46;18.10;99.90
24800;DHT22;12897;50.812;4.430;2023-06-24T01:34:30;17.90;99.90
24800;DHT22;12897;50.812;4.430;2023-06-24T01:37:17;17.90;99.90
24800;DHT22;12897;50.812;4.430;2023-06-24T01:39:50;18.00;99.90
24800;DHT22;12897;50.812;4.430;2023-06-24T01:42:22;18.00;99.90
24800;DHT22;12897;50.812;4.430;2023-06-24T01:44:50;17.90;99.90
24800;DHT22;12897;50.812;4.430;2023-06-24T01:47:23;17.80;99.90
24800;DHT22;12897;50.812;4.430;2023-06-24T01:49:59;17.90;99.90
24800;DHT22;12897;50.812;4.430;2023-06-24T01:52:36;17.70;99.90
24800;DHT22;12897;50.812;4.430;2023-06-24T01:55:10;17.70;99.90
24800;DHT22;12897;50.812;4.430;2023-06-24T01:57:50;17.60;99.90
24800;DHT22;12897;50.812;4.430;2023-06-24T02:00:19;17.70;99.90
24800;DHT22;12897;50.812;4.430;2023-06-24T02:02:57;17.70;99.90
24800;DHT22;12897;50.812;4.430;2023-06-24T02:05:35;17.70;99.90
24800;DHT22;12897;50.812;4.430;2023-06-24T02:08:11;17.70;99.90
24800;DHT22;12897;50.812;4.430;2023-06-24T02:10:51;17.70;99.90
24800;DHT22;12897;50.812;4.430;2023-06-24T02:13:27;17.60;99.90
24800;DHT22;12897;50.812;4.430;2023-06-24T02:16:02;17.50;99.90
24800;DHT22;12897;50.812;4.430;2023-06-24T02:18:38;17.50;99.90
24800;DHT22;12897;50.812;4.430;2023-06-24T02:21:16;17.40;99.90
24800;DHT22;12897;50.812;4.430;2023-06-24T02:23:44;17.40;99.90
24800;DHT22;12897;50.812;4.430;2023-06-24T02:26:26;17.40;99.90
24800;DHT22;12897;50.812;4.430;2023-06-24T02:29:03;17.30;99.90
24800;DHT22;12897;50.812;4.430;2023-06-24T02:31:34;17.30;99.90
24800;DHT22;12897;50.812;4.430;2023-06-24T02:34:15;17.20;99.90
24800;DHT22;12897;50.812;4.430;2023-06-24T02:36:42;17.40;99.90
24800;DHT22;12897;50.812;4.430;2023-06-24T02:39:10;17.30;99.90
24800;DHT22;12897;50.812;4.430;2023-06-24T02:41:38;17.30;99.90
24800;DHT22;12897;50.812;4.430;2023-06-24T02:44:10;17.20;99.90
24800;DHT22;12897;50.812;4.430;2023-06-24T02:46:36;17.20;99.90
24800;DHT22;12897;50.812;4.430;2023-06-24T02:49:09;17.20;99.90
24800;DHT22;12897;50.812;4.430;2023-06-24T02:51:37;17.10;99.90
24800;DHT22;12897;50.812;4.430;2023-06-24T02:54:07;17.00;99.90
24800;DHT22;12897;50.812;4.430;2023-06-24T02:56:35;17.00;99.90
24800;DHT22;12897;50.812;4.430;2023-06-24T02:59:05;17.00;99.90
24800;DHT22;12897;50.812;4.430;2023-06-24T03:01:37;17.00;99.90
24800;DHT22;12897;50.812;4.430;2023-06-24T03:04:29;17.00;99.90
24800;DHT22;12897;50.812;4.430;2023-06-24T03:06:57;17.00;99.90
24800;DHT22;12897;50.812;4.430;2023-06-24T03:09:27;17.00;99.90
24800;DHT22;12897;50.812;4.430;2023-06-24T03:11:54;17.10;99.90
24800;DHT22;12897;50.812;4.430;2023-06-24T03:14:22;17.10;99.90
24800;DHT22;12897;50.812;4.430;2023-06-24T03:16:50;17.00;99.90
24800;DHT22;12897;50.812;4.430;2023-06-24T03:19:17;17.00;99.90
24800;DHT22;12897;50.812;4.430;2023-06-24T03:21:45;16.90;99.90
24800;DHT22;12897;50.812;4.430;2023-06-24T03:24:12;16.80;99.90
24800;DHT22;12897;50.812;4.430;2023-06-24T03:26:42;16.70;99.90
24800;DHT22;12897;50.812;4.430;2023-06-24T03:29:11;16.60;99.90
24800;DHT22;12897;50.812;4.430;2023-06-24T03:31:40;16.60;99.90
24800;DHT22;12897;50.812;4.430;2023-06-24T03:34:19;16.70;99.90
24800;DHT22;12897;50.812;4.430;2023-06-24T03:36:46;16.70;99.90
24800;DHT22;12897;50.812;4.430;2023-06-24T03:39:18;16.70;99.90
24800;DHT22;12897;50.812;4.430;2023-06-24T03:41:55;16.50;99.90
24800;DHT22;12897;50.812;4.430;2023-06-24T03:44:34;16.40;99.90
24800;DHT22;12897;50.812;4.430;2023-06-24T03:47:06;16.50;99.90
24800;DHT22;12897;50.812;4.430;2023-06-24T03:49:44;16.60;99.90
24800;DHT22;12897;50.812;4.430;2023-06-24T03:52:25;16.50;99.90
24800;DHT22;12897;50.812;4.430;2023-06-24T03:54:56;16.50;99.90
24800;DHT22;12897;50.812;4.430;2023-06-24T03:57:38;16.60;99.90
24800;DHT22;12897;50.812;4.430;2023-06-24T04:00:07;16.50;99.90
24800;DHT22;12897;50.812;4.430;2023-06-24T04:02:49;16.70;99.90
24800;DHT22;12897;50.812;4.430;2023-06-24T04:05:20;16.70;99.90
24800;DHT22;12897;50.812;4.430;2023-06-24T04:10:36;16.80;99.90
24800;DHT22;12897;50.812;4.430;2023-06-24T04:13:11;16.90;99.90
24800;DHT22;12897;50.812;4.430;2023-06-24T04:15:48;16.70;99.90
24800;DHT22;12897;50.812;4.430;2023-06-24T04:18:19;16.50;99.90
24800;DHT22;12897;50.812;4.430;2023-06-24T04:20:47;16.40;99.90
24800;DHT22;12897;50.812;4.430;2023-06-24T04:23:16;16.50;99.90
24800;DHT22;12897;50.812;4.430;2023-06-24T04:25:44;16.60;99.90
24800;DHT22;12897;50.812;4.430;2023-06-24T04:28:11;16.60;99.90
24800;DHT22;12897;50.812;4.430;2023-06-24T04:30:39;16.70;99.90
24800;DHT22;12897;50.812;4.430;2023-06-24T04:33:06;16.70;99.90
24800;DHT22;12897;50.812;4.430;2023-06-24T04:35:35;16.70;99.90
24800;DHT22;12897;50.812;4.430;2023-06-24T04:38:04;16.80;99.90
24800;DHT22;12897;50.812;4.430;2023-06-24T04:40:33;16.80;99.90
24800;DHT22;12897;50.812;4.430;2023-06-24T04:43:03;16.90;99.90
24800;DHT22;12897;50.812;4.430;2023-06-24T04:45:30;17.00;99.90
24800;DHT22;12897;50.812;4.430;2023-06-24T04:47:58;17.10;99.90
24800;DHT22;12897;50.812;4.430;2023-06-24T04:50:29;17.10;99.90
24800;DHT22;12897;50.812;4.430;2023-06-24T04:53:00;17.20;99.90
24800;DHT22;12897;50.812;4.430;2023-06-24T04:55:28;17.40;99.90
24800;DHT22;12897;50.812;4.430;2023-06-24T04:57:59;17.40;99.90
24800;DHT22;12897;50.812;4.430;2023-06-24T05:00:27;17.40;99.90
24800;DHT22;12897;50.812;4.430;2023-06-24T05:02:59;17.70;99.90
24800;DHT22;12897;50.812;4.430;2023-06-24T05:05:28;17.70;99.90
24800;DHT22;12897;50.812;4.430;2023-06-24T05:07:57;17.80;99.90
24800;DHT22;12897;50.812;4.430;2023-06-24T05:10:31;17.80;99.90
24800;DHT22;12897;50.812;4.430;2023-06-24T05:13:04;18.00;99.90
24800;DHT22;12897;50.812;4.430;2023-06-24T05:15:30;18.10;99.90
24800;DHT22;12897;50.812;4.430;2023-06-24T05:18:08;18.30;99.90
24800;DHT22;12897;50.812;4.430;2023-06-24T05:20:28;19.00;99.90
24800;DHT22;12897;50.812;4.430;2023-06-24T05:22:56;20.30;99.90
24800;DHT22;12897;50.812;4.430;2023-06-24T05:25:23;21.50;99.90
24800;DHT22;12897;50.812;4.430;2023-06-24T05:27:53;22.30;99.90
24800;DHT22;12897;50.812;4.430;2023-06-24T05:30:22;23.00;99.90
24800;DHT22;12897;50.812;4.430;2023-06-24T05:32:52;23.60;99.90
24800;DHT22;12897;50.812;4.430;2023-06-24T05:35:23;24.30;99.90
24800;DHT22;12897;50.812;4.430;2023-06-24T05:37:50;24.90;99.90
24800;DHT22;12897;50.812;4.430;2023-06-24T05:40:19;25.40;99.90
24800;DHT22;12897;50.812;4.430;2023-06-24T05:42:50;26.10;99.90
24800;DHT22;12897;50.812;4.430;2023-06-24T05:45:19;26.40;99.90
24800;DHT22;12897;50.812;4.430;2023-06-24T05:47:47;26.90;99.90
24800;DHT22;12897;50.812;4.430;2023-06-24T05:50:17;26.80;99.90
24800;DHT22;12897;50.812;4.430;2023-06-24T05:52:46;26.70;99.90
24800;DHT22;12897;50.812;4.430;2023-06-24T05:55:17;26.30;99.90
24800;DHT22;12897;50.812;4.430;2023-06-24T05:57:45;26.30;99.90
24800;DHT22;12897;50.812;4.430;2023-06-24T06:00:13;26.50;99.90
24800;DHT22;12897;50.812;4.430;2023-06-24T06:02:41;26.90;99.90
24800;DHT22;12897;50.812;4.430;2023-06-24T06:05:09;26.60;99.90
24800;DHT22;12897;50.812;4.430;2023-06-24T06:07:37;26.40;99.90
24800;DHT22;12897;50.812;4.430;2023-06-24T06:10:06;26.30;99.90
24800;DHT22;12897;50.812;4.430;2023-06-24T06:12:36;26.60;99.90
24800;DHT22;12897;50.812;4.430;2023-06-24T06:15:06;26.10;99.90
24800;DHT22;12897;50.812;4.430;2023-06-24T06:17:34;25.70;99.90
24800;DHT22;12897;50.812;4.430;2023-06-24T06:20:06;25.70;99.90
24800;DHT22;12897;50.812;4.430;2023-06-24T06:22:34;25.30;99.90
24800;DHT22;12897;50.812;4.430;2023-06-24T06:25:05;25.20;99.90
24800;DHT22;12897;50.812;4.430;2023-06-24T06:27:34;25.30;99.90
24800;DHT22;12897;50.812;4.430;2023-06-24T06:30:05;25.50;99.90
24800;DHT22;12897;50.812;4.430;2023-06-24T06:32:39;25.40;99.90
24800;DHT22;12897;50.812;4.430;2023-06-24T06:35:07;25.40;99.90
24800;DHT22;12897;50.812;4.430;2023-06-24T06:37:35;25.20;99.90
24800;DHT22;12897;50.812;4.430;2023-06-24T06:40:09;24.80;99.90
24800;DHT22;12897;50.812;4.430;2023-06-24T06:42:35;24.40;99.90
24800;DHT22;12897;50.812;4.430;2023-06-24T06:45:04;24.00;99.90
24800;DHT22;12897;50.812;4.430;2023-06-24T06:47:36;23.90;99.90
24800;DHT22;12897;50.812;4.430;2023-06-24T06:50:04;23.90;99.90
24800;DHT22;12897;50.812;4.430;2023-06-24T06:52:35;24.20;99.90
24800;DHT22;12897;50.812;4.430;2023-06-24T06:55:06;24.30;99.90
24800;DHT22;12897;50.812;4.430;2023-06-24T06:57:33;24.10;99.90
24800;DHT22;12897;50.812;4.430;2023-06-24T07:00:09;23.80;99.90
24800;DHT22;12897;50.812;4.430;2023-06-24T07:02:35;23.80;99.90
24800;DHT22;12897;50.812;4.430;2023-06-24T07:05:10;23.80;99.90
24800;DHT22;12897;50.812;4.430;2023-06-24T07:07:38;23.50;99.90
24800;DHT22;12897;50.812;4.430;2023-06-24T07:10:07;23.70;99.90
24800;DHT22;12897;50.812;4.430;2023-06-24T07:12:38;23.70;99.90
24800;DHT22;12897;50.812;4.430;2023-06-24T07:15:06;23.90;99.90
24800;DHT22;12897;50.812;4.430;2023-06-24T07:17:36;23.80;99.90
24800;DHT22;12897;50.812;4.430;2023-06-24T07:20:11;23.80;99.90
24800;DHT22;12897;50.812;4.430;2023-06-24T07:22:41;23.90;99.90
24800;DHT22;12897;50.812;4.430;2023-06-24T07:25:08;24.00;99.90
24800;DHT22;12897;50.812;4.430;2023-06-24T07:27:37;24.00;99.90
24800;DHT22;12897;50.812;4.430;2023-06-24T07:30:10;24.10;99.90
24800;DHT22;12897;50.812;4.430;2023-06-24T07:32:43;24.30;99.90
24800;DHT22;12897;50.812;4.430;2023-06-24T07:35:07;24.10;99.90
24800;DHT22;12897;50.812;4.430;2023-06-24T07:37:36;23.80;99.90
24800;DHT22;12897;50.812;4.430;2023-06-24T07:40:06;23.70;99.90
24800;DHT22;12897;50.812;4.430;2023-06-24T07:42:40;23.80;99.90
24800;DHT22;12897;50.812;4.430;2023-06-24T07:45:05;23.90;99.90
24800;DHT22;12897;50.812;4.430;2023-06-24T07:47:33;23.90;99.90
24800;DHT22;12897;50.812;4.430;2023-06-24T07:50:05;23.90;99.90
24800;DHT22;12897;50.812;4.430;2023-06-24T07:52:33;23.80;99.90
24800;DHT22;12897;50.812;4.430;2023-06-24T07:55:04;23.70;99.90
24800;DHT22;12897;50.812;4.430;2023-06-24T07:57:33;23.80;99.90
24800;DHT22;12897;50.812;4.430;2023-06-24T08:00:02;23.70;99.90
24800;DHT22;12897;50.812;4.430;2023-06-24T08:02:31;23.70;99.90
24800;DHT22;12897;50.812;4.430;2023-06-24T08:04:58;23.60;99.90
24800;DHT22;12897;50.812;4.430;2023-06-24T08:07:26;23.70;99.90
24800;DHT22;12897;50.812;4.430;2023-06-24T08:09:54;23.80;99.90
24800;DHT22;12897;50.812;4.430;2023-06-24T08:12:26;23.70;99.90
24800;DHT22;12897;50.812;4.430;2023-06-24T08:14:55;23.80;99.90
24800;DHT22;12897;50.812;4.430;2023-06-24T08:17:22;23.80;99.90
24800;DHT22;12897;50.812;4.430;2023-06-24T08:19:50;24.00;99.90
24800;DHT22;12897;50.812;4.430;2023-06-24T08:22:19;24.00;99.90
24800;DHT22;12897;50.812;4.430;2023-06-24T08:24:52;24.10;99.90
24800;DHT22;12897;50.812;4.430;2023-06-24T08:27:20;24.00;99.90
24800;DHT22;12897;50.812;4.430;2023-06-24T08:29:51;24.00;99.90
24800;DHT22;12897;50.812;4.430;2023-06-24T08:32:19;24.00;99.90
24800;DHT22;12897;50.812;4.430;2023-06-24T08:34:54;23.90;99.90
24800;DHT22;12897;50.812;4.430;2023-06-24T08:37:18;23.90;99.90
24800;DHT22;12897;50.812;4.430;2023-06-24T08:39:47;24.00;99.90
24800;DHT22;12897;50.812;4.430;2023-06-24T08:42:18;24.20;99.90
24800;DHT22;12897;50.812;4.430;2023-06-24T08:44:52;24.10;99.90
24800;DHT22;12897;50.812;4.430;2023-06-24T08:47:19;24.00;99.90
24800;DHT22;12897;50.812;4.430;2023-06-24T08:49:52;23.90;99.90
24800;DHT22;12897;50.812;4.430;2023-06-24T08:52:25;24.00;99.90
24800;DHT22;12897;50.812;4.430;2023-06-24T08:54:55;24.10;99.90
24800;DHT22;12897;50.812;4.430;2023-06-24T08:57:27;24.00;99.90
24800;DHT22;12897;50.812;4.430;2023-06-24T08:59:54;24.10;99.90
24800;DHT22;12897;50.812;4.430;2023-06-24T09:02:22;24.20;99.90
24800;DHT22;12897;50.812;4.430;2023-06-24T09:04:52;24.20;99.90
24800;DHT22;12897;50.812;4.430;2023-06-24T09:07:27;24.20;99.90
24800;DHT22;12897;50.812;4.430;2023-06-24T09:09:55;24.20;99.90
24800;DHT22;12897;50.812;4.430;2023-06-24T09:12:25;24.10;99.90
24800;DHT22;12897;50.812;4.430;2023-06-24T09:14:54;24.30;99.90
24800;DHT22;12897;50.812;4.430;2023-06-24T09:17:21;24.30;99.90
24800;DHT22;12897;50.812;4.430;2023-06-24T09:19:50;24.50;99.90
24800;DHT22;12897;50.812;4.430;2023-06-24T09:22:18;24.50;99.90
24800;DHT22;12897;50.812;4.430;2023-06-24T09:24:48;24.70;99.90
24800;DHT22;12897;50.812;4.430;2023-06-24T09:27:17;24.70;99.90
24800;DHT22;12897;50.812;4.430;2023-06-24T09:29:53;24.60;99.90
24800;DHT22;12897;50.812;4.430;2023-06-24T09:32:21;24.70;99.90
24800;DHT22;12897;50.812;4.430;2023-06-24T09:34:51;24.70;99.90
24800;DHT22;12897;50.812;4.430;2023-06-24T09:37:23;24.70;99.90
24800;DHT22;12897;50.812;4.430;2023-06-24T09:39:56;24.60;99.90
24800;DHT22;12897;50.812;4.430;2023-06-24T09:42:24;24.50;99.90
24800;DHT22;12897;50.812;4.430;2023-06-24T09:44:55;24.60;99.90
24800;DHT22;12897;50.812;4.430;2023-06-24T09:47:25;24.80;99.90
24800;DHT22;12897;50.812;4.430;2023-06-24T09:49:54;24.90;99.90
24800;DHT22;12897;50.812;4.430;2023-06-24T09:52:23;24.90;99.90
24800;DHT22;12897;50.812;4.430;2023-06-24T09:54:52;24.90;99.90
24800;DHT22;12897;50.812;4.430;2023-06-24T09:57:26;24.90;99.90
24800;DHT22;12897;50.812;4.430;2023-06-24T09:59:55;25.10;99.90
24800;DHT22;12897;50.812;4.430;2023-06-24T10:02:25;25.30;99.80
24800;DHT22;12897;50.812;4.430;2023-06-24T10:04:53;25.30;97.20
24800;DHT22;12897;50.812;4.430;2023-06-24T10:07:24;25.20;97.00
24800;DHT22;12897;50.812;4.430;2023-06-24T10:09:56;25.00;96.70
24800;DHT22;12897;50.812;4.430;2023-06-24T10:12:32;24.80;97.40
24800;DHT22;12897;50.812;4.430;2023-06-24T10:14:56;24.80;96.00
24800;DHT22;12897;50.812;4.430;2023-06-24T10:17:24;25.00;95.50
24800;DHT22;12897;50.812;4.430;2023-06-24T10:19:53;25.10;96.00
24800;DHT22;12897;50.812;4.430;2023-06-24T10:22:26;25.20;96.70
24800;DHT22;12897;50.812;4.430;2023-06-24T10:25:05;25.20;96.80
24800;DHT22;12897;50.812;4.430;2023-06-24T10:27:40;25.20;95.50
24800;DHT22;12897;50.812;4.430;2023-06-24T10:30:16;25.20;93.70
24800;DHT22;12897;50.812;4.430;2023-06-24T10:32:42;25.10;94.10
24800;DHT22;12897;50.812;4.430;2023-06-24T10:35:25;25.20;96.30
24800;DHT22;12897;50.812;4.430;2023-06-24T10:37:59;25.40;95.40
24800;DHT22;12897;50.812;4.430;2023-06-24T10:40:46;25.40;95.90
24800;DHT22;12897;50.812;4.430;2023-06-24T10:43:26;25.50;93.40
24800;DHT22;12897;50.812;4.430;2023-06-24T10:46:06;25.40;94.50
24800;DHT22;12897;50.812;4.430;2023-06-24T10:48:32;25.50;94.30
24800;DHT22;12897;50.812;4.430;2023-06-24T10:51:02;25.60;92.20
24800;DHT22;12897;50.812;4.430;2023-06-24T10:53:34;25.70;92.60
24800;DHT22;12897;50.812;4.430;2023-06-24T10:56:02;25.80;91.80
24800;DHT22;12897;50.812;4.430;2023-06-24T10:58:33;25.80;91.00
24800;DHT22;12897;50.812;4.430;2023-06-24T11:01:08;25.70;91.50
24800;DHT22;12897;50.812;4.430;2023-06-24T11:03:43;25.50;92.20
24800;DHT22;12897;50.812;4.430;2023-06-24T11:06:13;25.60;91.50
24800;DHT22;12897;50.812;4.430;2023-06-24T11:08:47;25.60;88.10
24800;DHT22;12897;50.812;4.430;2023-06-24T11:11:23;25.70;90.00
24800;DHT22;12897;50.812;4.430;2023-06-24T11:13:50;25.70;90.40
24800;DHT22;12897;50.812;4.430;2023-06-24T11:16:21;25.40;91.00
24800;DHT22;12897;50.812;4.430;2023-06-24T11:18:48;25.50;92.00
24800;DHT22;12897;50.812;4.430;2023-06-24T11:21:19;25.70;92.80
24800;DHT22;12897;50.812;4.430;2023-06-24T11:23:46;25.70;91.30
24800;DHT22;12897;50.812;4.430;2023-06-24T11:26:15;25.50;91.80
24800;DHT22;12897;50.812;4.430;2023-06-24T11:28:43;25.60;91.70
24800;DHT22;12897;50.812;4.430;2023-06-24T11:31:16;25.90;91.10
24800;DHT22;12897;50.812;4.430;2023-06-24T11:33:50;26.00;91.10
24800;DHT22;12897;50.812;4.430;2023-06-24T11:36:21;26.00;87.70
24800;DHT22;12897;50.812;4.430;2023-06-24T11:38:51;25.70;84.40
24800;DHT22;12897;50.812;4.430;2023-06-24T11:41:22;25.70;87.40
24800;DHT22;12897;50.812;4.430;2023-06-24T11:43:51;25.90;88.80
24800;DHT22;12897;50.812;4.430;2023-06-24T11:46:29;26.00;85.70
24800;DHT22;12897;50.812;4.430;2023-06-24T11:49:08;25.90;90.20
24800;DHT22;12897;50.812;4.430;2023-06-24T11:51:49;25.90;89.90
24800;DHT22;12897;50.812;4.430;2023-06-24T11:54:20;26.00;91.00
24800;DHT22;12897;50.812;4.430;2023-06-24T11:56:52;26.10;90.60
24800;DHT22;12897;50.812;4.430;2023-06-24T11:59:32;26.10;90.60
24800;DHT22;12897;50.812;4.430;2023-06-24T12:02:17;26.10;90.60
24800;DHT22;12897;50.812;4.430;2023-06-24T12:04:44;26.40;88.60
24800;DHT22;12897;50.812;4.430;2023-06-24T12:07:12;26.30;89.10
24800;DHT22;12897;50.812;4.430;2023-06-24T12:09:45;26.40;88.20
24800;DHT22;12897;50.812;4.430;2023-06-24T12:12:10;26.30;86.30
24800;DHT22;12897;50.812;4.430;2023-06-24T12:14:38;26.10;82.30
24800;DHT22;12897;50.812;4.430;2023-06-24T12:17:06;26.00;82.70
24800;DHT22;12897;50.812;4.430;2023-06-24T12:19:39;26.00;80.70
24800;DHT22;12897;50.812;4.430;2023-06-24T12:22:09;26.20;86.20
24800;DHT22;12897;50.812;4.430;2023-06-24T12:24:39;26.30;90.00
24800;DHT22;12897;50.812;4.430;2023-06-24T12:27:08;26.40;87.30
24800;DHT22;12897;50.812;4.430;2023-06-24T12:29:37;26.40;85.40
24800;DHT22;12897;50.812;4.430;2023-06-24T12:32:09;26.40;83.70
24800;DHT22;12897;50.812;4.430;2023-06-24T12:34:34;26.30;81.90
24800;DHT22;12897;50.812;4.430;2023-06-24T12:37:03;26.40;83.10
24800;DHT22;12897;50.812;4.430;2023-06-24T12:39:32;26.50;81.10
24800;DHT22;12897;50.812;4.430;2023-06-24T12:42:00;26.70;83.10
24800;DHT22;12897;50.812;4.430;2023-06-24T12:44:27;26.50;83.10
24800;DHT22;12897;50.812;4.430;2023-06-24T12:47:11;26.50;81.10
24800;DHT22;12897;50.812;4.430;2023-06-24T12:49:44;26.20;81.60
24800;DHT22;12897;50.812;4.430;2023-06-24T12:52:14;26.10;80.80
24800;DHT22;12897;50.812;4.430;2023-06-24T12:54:42;26.10;82.50
24800;DHT22;12897;50.812;4.430;2023-06-24T12:57:14;26.10;82.70
24800;DHT22;12897;50.812;4.430;2023-06-24T12:59:42;26.10;80.90
24800;DHT22;12897;50.812;4.430;2023-06-24T13:02:14;26.10;80.70
24800;DHT22;12897;50.812;4.430;2023-06-24T13:04:45;26.10;80.90
24800;DHT22;12897;50.812;4.430;2023-06-24T13:07:15;26.00;79.50
24800;DHT22;12897;50.812;4.430;2023-06-24T13:09:44;26.10;78.90
24800;DHT22;12897;50.812;4.430;2023-06-24T13:12:22;26.20;80.70
24800;DHT22;12897;50.812;4.430;2023-06-24T13:14:55;26.50;82.20
24800;DHT22;12897;50.812;4.430;2023-06-24T13:17:23;26.70;82.30
24800;DHT22;12897;50.812;4.430;2023-06-24T13:19:49;26.60;80.80
24800;DHT22;12897;50.812;4.430;2023-06-24T13:22:18;26.70;81.10
24800;DHT22;12897;50.812;4.430;2023-06-24T13:24:50;26.60;79.50
24800;DHT22;12897;50.812;4.430;2023-06-24T13:27:18;26.60;78.80
24800;DHT22;12897;50.812;4.430;2023-06-24T13:29:46;26.70;78.50
24800;DHT22;12897;50.812;4.430;2023-06-24T13:32:14;26.80;79.10
24800;DHT22;12897;50.812;4.430;2023-06-24T13:34:42;26.70;80.30
24800;DHT22;12897;50.812;4.430;2023-06-24T13:37:09;26.60;77.70
24800;DHT22;12897;50.812;4.430;2023-06-24T13:39:38;26.40;78.90
24800;DHT22;12897;50.812;4.430;2023-06-24T13:42:12;26.50;78.40
24800;DHT22;12897;50.812;4.430;2023-06-24T13:44:42;26.40;77.70
24800;DHT22;12897;50.812;4.430;2023-06-24T13:47:07;26.50;79.70
24800;DHT22;12897;50.812;4.430;2023-06-24T13:49:35;26.60;79.90
24800;DHT22;12897;50.812;4.430;2023-06-24T13:52:03;26.60;81.00
24800;DHT22;12897;50.812;4.430;2023-06-24T13:54:31;26.80;79.50
24800;DHT22;12897;50.812;4.430;2023-06-24T13:57:00;27.10;79.80
24800;DHT22;12897;50.812;4.430;2023-06-24T13:59:29;27.10;79.80
24800;DHT22;12897;50.812;4.430;2023-06-24T14:01:57;27.00;82.80
24800;DHT22;12897;50.812;4.430;2023-06-24T14:04:33;27.10;83.70
24800;DHT22;12897;50.812;4.430;2023-06-24T14:07:03;27.10;80.80
24800;DHT22;12897;50.812;4.430;2023-06-24T14:09:31;27.20;80.00
24800;DHT22;12897;50.812;4.430;2023-06-24T14:12:01;27.30;77.60
24800;DHT22;12897;50.812;4.430;2023-06-24T14:14:35;27.40;79.30
24800;DHT22;12897;50.812;4.430;2023-06-24T14:17:08;27.20;79.50
24800;DHT22;12897;50.812;4.430;2023-06-24T14:19:39;27.20;78.50
24800;DHT22;12897;50.812;4.430;2023-06-24T14:22:07;27.50;76.50
24800;DHT22;12897;50.812;4.430;2023-06-24T14:24:36;27.60;77.90
24800;DHT22;12897;50.812;4.430;2023-06-24T14:27:06;27.70;78.30
24800;DHT22;12897;50.812;4.430;2023-06-24T14:29:34;27.40;76.90
24800;DHT22;12897;50.812;4.430;2023-06-24T14:32:08;27.30;75.40
24800;DHT22;12897;50.812;4.430;2023-06-24T14:34:37;27.20;76.10
24800;DHT22;12897;50.812;4.430;2023-06-24T14:37:08;27.10;78.70
24800;DHT22;12897;50.812;4.430;2023-06-24T14:39:36;27.20;78.30
24800;DHT22;12897;50.812;4.430;2023-06-24T14:42:07;27.40;77.20
24800;DHT22;12897;50.812;4.430;2023-06-24T14:44:35;27.50;76.80
24800;DHT22;12897;50.812;4.430;2023-06-24T14:47:03;27.60;76.00
24800;DHT22;12897;50.812;4.430;2023-06-24T14:49:34;27.20;75.20
24800;DHT22;12897;50.812;4.430;2023-06-24T14:52:01;27.20;76.30
24800;DHT22;12897;50.812;4.430;2023-06-24T14:54:29;27.30;76.70
24800;DHT22;12897;50.812;4.430;2023-06-24T14:56:56;27.40;76.20
24800;DHT22;12897;50.812;4.430;2023-06-24T14:59:26;27.70;74.20
24800;DHT22;12897;50.812;4.430;2023-06-24T15:01:55;28.00;73.90
24800;DHT22;12897;50.812;4.430;2023-06-24T15:04:24;28.10;73.30
24800;DHT22;12897;50.812;4.430;2023-06-24T15:06:54;28.30;70.60
24800;DHT22;12897;50.812;4.430;2023-06-24T15:09:23;28.20;70.30
24800;DHT22;12897;50.812;4.430;2023-06-24T15:11:51;28.10;71.20
24800;DHT22;12897;50.812;4.430;2023-06-24T15:14:20;28.10;72.70
24800;DHT22;12897;50.812;4.430;2023-06-24T15:16:48;27.90;71.30
24800;DHT22;12897;50.812;4.430;2023-06-24T15:19:18;27.70;70.60
24800;DHT22;12897;50.812;4.430;2023-06-24T15:21:47;27.70;71.20
24800;DHT22;12897;50.812;4.430;2023-06-24T15:24:15;28.10;68.60
24800;DHT22;12897;50.812;4.430;2023-06-24T15:26:46;28.20;66.40
24800;DHT22;12897;50.812;4.430;2023-06-24T15:29:13;28.30;67.10
24800;DHT22;12897;50.812;4.430;2023-06-24T15:31:46;28.40;68.00
24800;DHT22;12897;50.812;4.430;2023-06-24T15:34:11;28.10;69.60
24800;DHT22;12897;50.812;4.430;2023-06-24T15:36:40;28.10;68.90
24800;DHT22;12897;50.812;4.430;2023-06-24T15:39:13;28.30;69.30
24800;DHT22;12897;50.812;4.430;2023-06-24T15:41:41;28.50;67.90
24800;DHT22;12897;50.812;4.430;2023-06-24T15:44:11;28.20;67.00
24800;DHT22;12897;50.812;4.430;2023-06-24T15:46:44;28.30;67.60
24800;DHT22;12897;50.812;4.430;2023-06-24T15:49:14;28.30;68.20
24800;DHT22;12897;50.812;4.430;2023-06-24T15:51:48;28.30;69.30
24800;DHT22;12897;50.812;4.430;2023-06-24T15:54:20;28.20;68.70
24800;DHT22;12897;50.812;4.430;2023-06-24T15:56:50;28.10;69.50
24800;DHT22;12897;50.812;4.430;2023-06-24T15:59:16;28.10;69.30
24800;DHT22;12897;50.812;4.430;2023-06-24T16:02:00;28.30;69.00
24800;DHT22;12897;50.812;4.430;2023-06-24T16:04:28;28.60;68.40